sensor_id;sensor_type;location;lat;lon;timestamp;temperature;humidity
22319;DHT22;11327;52.334;9.506;2022-12-20T00:01:30;6.80;99.90
22319;DHT22;11327;52.334;9.506;2022-12-20T00:04:47;6.70;99.90
22319;DHT22;11327;52.334;9.506;2022-12-20T00:08:09;6.60;99.90
22319;DHT22;11327;52.334;9.506;2022-12-20T00:11:30;6.50;99.90
22319;DHT22;11327;52.334;9.506;2022-12-20T00:14:51;6.50;99.90
22319;DHT22;11327;52.334;9.506;2022-12-20T00:18:12;6.50;99.90
22319;DHT22;11327;52.334;9.506;2022-12-20T00:21:34;6.50;99.90
22319;DHT22;11327;52.334;9.506;2022-12-20T00:24:55;6.50;99.90
22319;DHT22;11327;52.334;9.506;2022-12-20T00:28:16;6.50;99.90
22319;DHT22;11327;52.334;9.506;2022-12-20T00:31:37;6.50;99.90
22319;DHT22;11327;52.334;9.506;2022-12-20T00:34:58;6.50;99.90
22319;DHT22;11327;52.334;9.506;2022-12-20T00:38:19;6.50;99.90
22319;DHT22;11327;52.334;9.506;2022-12-20T00:41:40;6.60;99.90
22319;DHT22;11327;52.334;9.506;2022-12-20T00:45:02;6.70;99.90
22319;DHT22;11327;52.334;9.506;2022-12-20T00:48:23;6.70;99.90
22319;DHT22;11327;52.334;9.506;2022-12-20T00:51:44;6.70;99.90
22319;DHT22;11327;52.334;9.506;2022-12-20T00:55:05;6.70;99.90
22319;DHT22;11327;52.334;9.506;2022-12-20T00:58:26;6.70;99.90
22319;DHT22;11327;52.334;9.506;2022-12-20T01:01:47;6.70;99.90
22319;DHT22;11327;52.334;9.506;2022-12-20T01:05:08;6.60;99.90
22319;DHT22;11327;52.334;9.506;2022-12-20T01:08:30;6.60;99.90
22319;DHT22;11327;52.334;9.506;2022-12-20T01:11:51;6.60;99.90
22319;DHT22;11327;52.334;9.506;2022-12-20T01:15:12;6.50;99.90
22319;DHT22;11327;52.334;9.506;2022-12-20T01:18:33;6.30;99.90
22319;DHT22;11327;52.334;9.506;2022-12-20T01:21:54;6.30;99.90
22319;DHT22;11327;52.334;9.506;2022-12-20T01:25:15;6.30;99.90
22319;DHT22;11327;52.334;9.506;2022-12-20T01:28:39;6.30;99.90
22319;DHT22;11327;52.334;9.506;2022-12-20T01:32:00;6.50;99.90
22319;DHT22;11327;52.334;9.506;2022-12-20T01:35:21;6.50;99.90
22319;DHT22;11327;52.334;9.506;2022-12-20T01:38:42;6.50;99.90
22319;DHT22;11327;52.334;9.506;2022-12-20T01:42:03;6.60;99.90
22319;DHT22;11327;52.334;9.506;2022-12-20T01:45:28;6.80;99.90
22319;DHT22;11327;52.334;9.506;2022-12-20T01:52:40;6.90;99.90
22319;DHT22;11327;52.334;9.506;2022-12-20T01:56:04;6.90;99.90
22319;DHT22;11327;52.334;9.506;2022-12-20T01:59:27;7.00;99.90
22319;DHT22;11327;52.334;9.506;2022-12-20T02:02:49;7.00;99.90
22319;DHT22;11327;52.334;9.506;2022-12-20T02:06:19;7.10;99.90
22319;DHT22;11327;52.334;9.506;2022-12-20T02:09:36;7.20;99.90
22319;DHT22;11327;52.334;9.506;2022-12-20T02:13:04;7.20;99.90
22319;DHT22;11327;52.334;9.506;2022-12-20T02:16:25;7.30;99.90
22319;DHT22;11327;52.334;9.506;2022-12-20T02:30:37;6.80;99.90
22319;DHT22;11327;52.334;9.506;2022-12-20T02:33:59;6.70;99.90
22319;DHT22;11327;52.334;9.506;2022-12-20T02:37:21;6.70;99.90
22319;DHT22;11327;52.334;9.506;2022-12-20T02:40:43;6.60;99.90
22319;DHT22;11327;52.334;9.506;2022-12-20T02:44:07;6.70;99.90
22319;DHT22;11327;52.334;9.506;2022-12-20T02:48:06;6.60;99.90
22319;DHT22;11327;52.334;9.506;2022-12-20T02:51:25;6.70;99.90
22319;DHT22;11327;52.334;9.506;2022-12-20T02:54:48;6.80;99.90
22319;DHT22;11327;52.334;9.506;2022-12-20T03:01:55;6.90;99.90
22319;DHT22;11327;52.334;9.506;2022-12-20T03:05:17;7.00;99.90
22319;DHT22;11327;52.334;9.506;2022-12-20T03:08:43;7.00;99.90
22319;DHT22;11327;52.334;9.506;2022-12-20T03:12:04;7.10;99.90
22319;DHT22;11327;52.334;9.506;2022-12-20T03:15:25;7.10;99.90
22319;DHT22;11327;52.334;9.506;2022-12-20T03:18:46;7.00;99.90
22319;DHT22;11327;52.334;9.506;2022-12-20T03:22:07;6.90;99.90
22319;DHT22;11327;52.334;9.506;2022-12-20T03:25:28;6.90;99.90
22319;DHT22;11327;52.334;9.506;2022-12-20T03:28:49;6.90;99.90
22319;DHT22;11327;52.334;9.506;2022-12-20T03:32:11;6.80;99.90
22319;DHT22;11327;52.334;9.506;2022-12-20T03:35:32;6.70;99.90
22319;DHT22;11327;52.334;9.506;2022-12-20T03:38:53;6.70;99.90
22319;DHT22;11327;52.334;9.506;2022-12-20T03:42:14;6.70;99.90
22319;DHT22;11327;52.334;9.506;2022-12-20T03:45:35;6.60;99.90
22319;DHT22;11327;52.334;9.506;2022-12-20T03:48:56;6.60;99.90
22319;DHT22;11327;52.334;9.506;2022-12-20T03:52:17;6.60;99.90
22319;DHT22;11327;52.334;9.506;2022-12-20T03:55:38;6.60;99.90
22319;DHT22;11327;52.334;9.506;2022-12-20T03:58:59;6.60;99.90
22319;DHT22;11327;52.334;9.506;2022-12-20T04:02:20;6.50;99.90
22319;DHT22;11327;52.334;9.506;2022-12-20T04:05:42;6.50;99.90
22319;DHT22;11327;52.334;9.506;2022-12-20T04:09:03;6.50;99.90
22319;DHT22;11327;52.334;9.506;2022-12-20T04:12:24;6.50;99.90
22319;DHT22;11327;52.334;9.506;2022-12-20T04:15:45;6.40;99.90
22319;DHT22;11327;52.334;9.506;2022-12-20T04:19:06;6.40;99.90
22319;DHT22;11327;52.334;9.506;2022-12-20T04:22:27;6.50;99.90
22319;DHT22;11327;52.334;9.506;2022-12-20T04:25:48;6.60;99.90
22319;DHT22;11327;52.334;9.506;2022-12-20T04:29:09;6.60;99.90
22319;DHT22;11327;52.334;9.506;2022-12-20T04:32:30;6.60;99.90
22319;DHT22;11327;52.334;9.506;2022-12-20T04:35:51;6.90;99.90
22319;DHT22;11327;52.334;9.506;2022-12-20T04:39:12;7.10;99.90
22319;DHT22;11327;52.334;9.506;2022-12-20T04:42:33;7.20;99.90
22319;DHT22;11327;52.334;9.506;2022-12-20T04:45:55;7.40;99.90
22319;DHT22;11327;52.334;9.506;2022-12-20T04:49:16;7.50;99.90
22319;DHT22;11327;52.334;9.506;2022-12-20T04:52:37;7.70;99.90
22319;DHT22;11327;52.334;9.506;2022-12-20T04:56:24;7.80;99.90
22319;DHT22;11327;52.334;9.506;2022-12-20T04:59:41;7.80;99.90
22319;DHT22;11327;52.334;9.506;2022-12-20T05:03:02;7.80;99.90
22319;DHT22;11327;52.334;9.506;2022-12-20T05:06:23;7.80;99.90
22319;DHT22;11327;52.334;9.506;2022-12-20T05:09:44;7.50;99.90
22319;DHT22;11327;52.334;9.506;2022-12-20T05:13:05;7.40;99.90
22319;DHT22;11327;52.334;9.506;2022-12-20T05:16:26;7.30;99.90
22319;DHT22;11327;52.334;9.506;2022-12-20T05:19:47;7.10;99.90
22319;DHT22;11327;52.334;9.506;2022-12-20T05:23:09;7.10;99.90
22319;DHT22;11327;52.334;9.506;2022-12-20T05:26:48;7.00;99.90
22319;DHT22;11327;52.334;9.506;2022-12-20T05:30:10;7.00;99.90
22319;DHT22;11327;52.334;9.506;2022-12-20T05:33:31;7.00;99.90
22319;DHT22;11327;52.334;9.506;2022-12-20T05:36:52;7.00;99.90
22319;DHT22;11327;52.334;9.506;2022-12-20T05:40:13;7.00;99.90
22319;DHT22;11327;52.334;9.506;2022-12-20T05:43:35;6.90;99.90
22319;DHT22;11327;52.334;9.506;2022-12-20T05:46:56;6.90;99.90
22319;DHT22;11327;52.334;9.506;2022-12-20T05:50:17;6.80;99.90
22319;DHT22;11327;52.334;9.506;2022-12-20T05:53:38;6.80;99.90
22319;DHT22;11327;52.334;9.506;2022-12-20T05:56:59;6.80;99.90
22319;DHT22;11327;52.334;9.506;2022-12-20T06:00:21;6.80;99.90
22319;DHT22;11327;52.334;9.506;2022-12-20T06:03:42;6.90;99.90
22319;DHT22;11327;52.334;9.506;2022-12-20T06:07:03;6.90;99.90
22319;DHT22;11327;52.334;9.506;2022-12-20T06:10:25;6.90;99.90
22319;DHT22;11327;52.334;9.506;2022-12-20T06:13:46;7.00;99.90
22319;DHT22;11327;52.334;9.506;2022-12-20T06:17:07;7.00;99.90
22319;DHT22;11327;52.334;9.506;2022-12-20T06:20:28;6.90;99.90
22319;DHT22;11327;52.334;9.506;2022-12-20T06:23:49;7.00;99.90
22319;DHT22;11327;52.334;9.506;2022-12-20T06:27:10;7.00;99.90
22319;DHT22;11327;52.334;9.506;2022-12-20T06:30:31;7.00;99.90
22319;DHT22;11327;52.334;9.506;2022-12-20T06:33:52;6.90;99.90
22319;DHT22;11327;52.334;9.506;2022-12-20T06:37:13;6.80;99.90
22319;DHT22;11327;52.334;9.506;2022-12-20T06:40:34;6.80;99.90
22319;DHT22;11327;52.334;9.506;2022-12-20T06:43:55;6.80;99.90
22319;DHT22;11327;52.334;9.506;2022-12-20T06:47:16;6.80;99.90
22319;DHT22;11327;52.334;9.506;2022-12-20T06:50:38;6.90;99.90
22319;DHT22;11327;52.334;9.506;2022-12-20T06:53:59;6.90;99.90
22319;DHT22;11327;52.334;9.506;2022-12-20T06:57:20;6.90;99.90
22319;DHT22;11327;52.334;9.506;2022-12-20T07:00:41;7.00;99.90
22319;DHT22;11327;52.334;9.506;2022-12-20T07:04:02;7.00;99.90
22319;DHT22;11327;52.334;9.506;2022-12-20T07:07:23;7.10;99.90
22319;DHT22;11327;52.334;9.506;2022-12-20T07:10:44;7.10;99.90
22319;DHT22;11327;52.334;9.506;2022-12-20T07:14:05;7.10;99.90
22319;DHT22;11327;52.334;9.506;2022-12-20T07:17:26;7.20;99.90
22319;DHT22;11327;52.334;9.506;2022-12-20T07:20:47;7.20;99.90
22319;DHT22;11327;52.334;9.506;2022-12-20T07:24:08;7.30;99.90
22319;DHT22;11327;52.334;9.506;2022-12-20T07:27:29;7.30;99.90
22319;DHT22;11327;52.334;9.506;2022-12-20T07:30:50;7.30;99.90
22319;DHT22;11327;52.334;9.506;2022-12-20T07:34:11;7.30;99.90
22319;DHT22;11327;52.334;9.506;2022-12-20T07:37:32;7.40;99.90
22319;DHT22;11327;52.334;9.506;2022-12-20T07:40:53;7.50;99.90
22319;DHT22;11327;52.334;9.506;2022-12-20T07:44:14;7.70;99.90
22319;DHT22;11327;52.334;9.506;2022-12-20T07:47:35;7.50;99.90
22319;DHT22;11327;52.334;9.506;2022-12-20T07:51:05;7.40;99.90
22319;DHT22;11327;52.334;9.506;2022-12-20T07:54:26;7.40;99.90
22319;DHT22;11327;52.334;9.506;2022-12-20T07:57:55;7.30;99.90
22319;DHT22;11327;52.334;9.506;2022-12-20T08:01:12;7.20;99.90
22319;DHT22;11327;52.334;9.506;2022-12-20T08:04:33;7.20;99.90
22319;DHT22;11327;52.334;9.506;2022-12-20T08:07:55;7.20;99.90
22319;DHT22;11327;52.334;9.506;2022-12-20T08:11:18;7.20;99.90
22319;DHT22;11327;52.334;9.506;2022-12-20T08:14:40;7.20;99.90
22319;DHT22;11327;52.334;9.506;2022-12-20T08:18:02;7.20;99.90
22319;DHT22;11327;52.334;9.506;2022-12-20T08:21:23;7.20;99.90
22319;DHT22;11327;52.334;9.506;2022-12-20T08:24:44;7.20;99.90
22319;DHT22;11327;52.334;9.506;2022-12-20T08:28:05;7.20;99.90
22319;DHT22;11327;52.334;9.506;2022-12-20T08:31:26;7.30;99.90
22319;DHT22;11327;52.334;9.506;2022-12-20T08:34:47;7.40;99.90
22319;DHT22;11327;52.334;9.506;2022-12-20T08:38:09;7.40;99.90
22319;DHT22;11327;52.334;9.506;2022-12-20T08:41:30;7.50;99.90
22319;DHT22;11327;52.334;9.506;2022-12-20T08:44:51;7.50;99.90
22319;DHT22;11327;52.334;9.506;2022-12-20T08:48:12;7.60;99.90
22319;DHT22;11327;52.334;9.506;2022-12-20T08:51:33;7.60;99.90
22319;DHT22;11327;52.334;9.506;2022-12-20T08:54:54;7.60;99.90
22319;DHT22;11327;52.334;9.506;2022-12-20T08:58:15;7.60;99.90
22319;DHT22;11327;52.334;9.506;2022-12-20T09:01:36;7.70;99.90
22319;DHT22;11327;52.334;9.506;2022-12-20T09:04:57;7.70;99.90
22319;DHT22;11327;52.334;9.506;2022-12-20T09:08:18;7.70;99.90
22319;DHT22;11327;52.334;9.506;2022-12-20T09:11:39;7.70;99.90
22319;DHT22;11327;52.334;9.506;2022-12-20T09:15:00;7.70;99.90
22319;DHT22;11327;52.334;9.506;2022-12-20T09:18:21;7.80;99.90
22319;DHT22;11327;52.334;9.506;2022-12-20T09:21:43;7.80;99.90
22319;DHT22;11327;52.334;9.506;2022-12-20T09:25:04;7.80;99.90
22319;DHT22;11327;52.334;9.506;2022-12-20T09:28:26;7.80;99.90
22319;DHT22;11327;52.334;9.506;2022-12-20T09:31:48;7.80;99.90
22319;DHT22;11327;52.334;9.506;2022-12-20T09:35:09;7.80;99.90
22319;DHT22;11327;52.334;9.506;2022-12-20T09:38:30;7.90;99.90
22319;DHT22;11327;52.334;9.506;2022-12-20T09:41:51;8.10;99.90
22319;DHT22;11327;52.334;9.506;2022-12-20T09:45:18;8.30;99.90
22319;DHT22;11327;52.334;9.506;2022-12-20T09:48:38;8.40;99.90
22319;DHT22;11327;52.334;9.506;2022-12-20T09:56:00;8.60;99.90
22319;DHT22;11327;52.334;9.506;2022-12-20T09:59:20;8.50;99.90
22319;DHT22;11327;52.334;9.506;2022-12-20T10:02:42;8.60;99.90
22319;DHT22;11327;52.334;9.506;2022-12-20T10:06:25;8.70;99.90
22319;DHT22;11327;52.334;9.506;2022-12-20T10:21:08;10.10;99.90
22319;DHT22;11327;52.334;9.506;2022-12-20T10:24:30;10.40;99.90
22319;DHT22;11327;52.334;9.506;2022-12-20T10:27:54;10.60;99.90
22319;DHT22;11327;52.334;9.506;2022-12-20T10:31:17;10.70;99.90
22319;DHT22;11327;52.334;9.506;2022-12-20T10:38:13;11.00;99.90
22319;DHT22;11327;52.334;9.506;2022-12-20T10:45:20;11.00;99.90
22319;DHT22;11327;52.334;9.506;2022-12-20T10:48:31;11.00;99.90
22319;DHT22;11327;52.334;9.506;2022-12-20T10:51:55;10.90;99.90
22319;DHT22;11327;52.334;9.506;2022-12-20T10:55:35;10.80;99.90
22319;DHT22;11327;52.334;9.506;2022-12-20T10:59:41;10.80;99.90
22319;DHT22;11327;52.334;9.506;2022-12-20T11:02:29;10.80;99.90
22319;DHT22;11327;52.334;9.506;2022-12-20T11:05:59;10.90;99.90
22319;DHT22;11327;52.334;9.506;2022-12-20T11:09:28;11.00;99.90
22319;DHT22;11327;52.334;9.506;2022-12-20T11:16:25;11.30;99.90
22319;DHT22;11327;52.334;9.506;2022-12-20T11:23:39;11.40;99.90
22319;DHT22;11327;52.334;9.506;2022-12-20T11:45:25;11.90;99.90
22319;DHT22;11327;52.334;9.506;2022-12-20T11:52:38;11.70;99.90
22319;DHT22;11327;52.334;9.506;2022-12-20T11:56:05;11.50;99.90
22319;DHT22;11327;52.334;9.506;2022-12-20T11:59:44;11.30;99.90
22319;DHT22;11327;52.334;9.506;2022-12-20T12:06:47;10.90;99.90
22319;DHT22;11327;52.334;9.506;2022-12-20T12:10:24;11.00;99.90
22319;DHT22;11327;52.334;9.506;2022-12-20T12:13:47;10.80;99.90
22319;DHT22;11327;52.334;9.506;2022-12-20T12:17:17;10.70;99.90
22319;DHT22;11327;52.334;9.506;2022-12-20T12:24:24;10.70;99.90
22319;DHT22;11327;52.334;9.506;2022-12-20T12:27:43;10.70;99.90
22319;DHT22;11327;52.334;9.506;2022-12-20T12:31:07;10.50;99.90
22319;DHT22;11327;52.334;9.506;2022-12-20T12:41:43;10.60;99.90
22319;DHT22;11327;52.334;9.506;2022-12-20T12:45:22;10.50;99.90
22319;DHT22;11327;52.334;9.506;2022-12-20T12:52:28;10.40;99.90
22319;DHT22;11327;52.334;9.506;2022-12-20T12:55:51;10.30;99.90
22319;DHT22;11327;52.334;9.506;2022-12-20T12:59:22;10.30;99.90
22319;DHT22;11327;52.334;9.506;2022-12-20T13:02:50;10.50;99.90
22319;DHT22;11327;52.334;9.506;2022-12-20T13:09:48;10.30;99.90
22319;DHT22;11327;52.334;9.506;2022-12-20T13:13:18;10.20;99.90
22319;DHT22;11327;52.334;9.506;2022-12-20T13:16:36;10.10;99.90
22319;DHT22;11327;52.334;9.506;2022-12-20T13:19:59;10.00;99.90
22319;DHT22;11327;52.334;9.506;2022-12-20T13:23:20;10.20;99.90
22319;DHT22;11327;52.334;9.506;2022-12-20T13:26:49;10.10;99.90
22319;DHT22;11327;52.334;9.506;2022-12-20T13:33:51;10.10;99.90
22319;DHT22;11327;52.334;9.506;2022-12-20T13:45:00;10.10;99.90
22319;DHT22;11327;52.334;9.506;2022-12-20T13:48:27;10.30;99.90
22319;DHT22;11327;52.334;9.506;2022-12-20T13:52:10;10.20;99.90
22319;DHT22;11327;52.334;9.506;2022-12-20T13:55:35;10.20;99.90
22319;DHT22;11327;52.334;9.506;2022-12-20T13:58:58;10.20;99.90
22319;DHT22;11327;52.334;9.506;2022-12-20T14:02:23;10.30;99.90
22319;DHT22;11327;52.334;9.506;2022-12-20T14:05:45;10.30;99.90
22319;DHT22;11327;52.334;9.506;2022-12-20T14:09:25;10.30;99.90
22319;DHT22;11327;52.334;9.506;2022-12-20T14:12:30;10.30;99.90
22319;DHT22;11327;52.334;9.506;2022-12-20T14:15:52;10.30;99.90
22319;DHT22;11327;52.334;9.506;2022-12-20T14:19:14;10.20;99.90
22319;DHT22;11327;52.334;9.506;2022-12-20T14:22:35;10.20;99.90
22319;DHT22;11327;52.334;9.506;2022-12-20T14:25:58;10.20;99.90
22319;DHT22;11327;52.334;9.506;2022-12-20T14:29:24;10.20;99.90
22319;DHT22;11327;52.334;9.506;2022-12-20T14:32:48;10.30;99.90
22319;DHT22;11327;52.334;9.506;2022-12-20T14:39:53;10.20;99.90
22319;DHT22;11327;52.334;9.506;2022-12-20T14:43:15;10.20;99.90
22319;DHT22;11327;52.334;9.506;2022-12-20T14:46:37;10.00;99.90
22319;DHT22;11327;52.334;9.506;2022-12-20T14:50:19;10.00;99.90
22319;DHT22;11327;52.334;9.506;2022-12-20T14:53:43;10.00;99.90
22319;DHT22;11327;52.334;9.506;2022-12-20T14:57:09;9.80;99.90
22319;DHT22;11327;52.334;9.506;2022-12-20T15:00:30;9.70;99.90
22319;DHT22;11327;52.334;9.506;2022-12-20T15:03:57;9.60;99.90
22319;DHT22;11327;52.334;9.506;2022-12-20T15:07:29;9.40;99.90
22319;DHT22;11327;52.334;9.506;2022-12-20T15:14:34;9.20;99.90
22319;DHT22;11327;52.334;9.506;2022-12-20T15:17:56;9.10;99.90
22319;DHT22;11327;52.334;9.506;2022-12-20T15:21:32;9.10;99.90
22319;DHT22;11327;52.334;9.506;2022-12-20T15:24:50;9.00;99.90
22319;DHT22;11327;52.334;9.506;2022-12-20T15:28:14;9.00;99.90
22319;DHT22;11327;52.334;9.506;2022-12-20T15:31:36;9.00;99.90
22319;DHT22;11327;52.334;9.506;2022-12-20T15:34:57;8.90;99.90
22319;DHT22;11327;52.334;9.506;2022-12-20T15:38:23;9.00;99.90
22319;DHT22;11327;52.334;9.506;2022-12-20T15:41:47;9.10;99.90
22319;DHT22;11327;52.334;9.506;2022-12-20T15:45:15;9.10;99.90
22319;DHT22;11327;52.334;9.506;2022-12-20T15:48:36;9.10;99.90
22319;DHT22;11327;52.334;9.506;2022-12-20T15:51:57;9.10;99.90
22319;DHT22;11327;52.334;9.506;2022-12-20T15:55:18;9.10;99.90
22319;DHT22;11327;52.334;9.506;2022-12-20T15:58:39;9.10;99.90
22319;DHT22;11327;52.334;9.506;2022-12-20T16:02:00;9.10;99.90
22319;DHT22;11327;52.334;9.506;2022-12-20T16:05:21;9.10;99.90
22319;DHT22;11327;52.334;9.506;2022-12-20T16:08:42;9.20;99.90
22319;DHT22;11327;52.334;9.506;2022-12-20T16:12:03;9.30;99.90
22319;DHT22;11327;52.334;9.506;2022-12-20T16:15:24;9.40;99.90
22319;DHT22;11327;52.334;9.506;2022-12-20T16:18:45;9.40;99.90
22319;DHT22;11327;52.334;9.506;2022-12-20T16:22:15;9.50;99.90
22319;DHT22;11327;52.334;9.506;2022-12-20T16:25:36;9.80;99.90
22319;DHT22;11327;52.334;9.506;2022-12-20T16:28:57;9.90;99.90
22319;DHT22;11327;52.334;9.506;2022-12-20T16:32:19;9.90;99.90
22319;DHT22;11327;52.334;9.506;2022-12-20T16:35:44;10.00;99.90
22319;DHT22;11327;52.334;9.506;2022-12-20T16:39:05;10.00;99.90
22319;DHT22;11327;52.334;9.506;2022-12-20T16:42:26;9.90;99.90
22319;DHT22;11327;52.334;9.506;2022-12-20T16:45:47;9.90;99.90
22319;DHT22;11327;52.334;9.506;2022-12-20T16:49:09;10.00;99.90
22319;DHT22;11327;52.334;9.506;2022-12-20T16:52:31;9.90;99.90
22319;DHT22;11327;52.334;9.506;2022-12-20T16:55:54;9.70;99.90
22319;DHT22;11327;52.334;9.506;2022-12-20T16:59:15;9.60;99.90
22319;DHT22;11327;52.334;9.506;2022-12-20T17:02:36;9.60;99.90
22319;DHT22;11327;52.334;9.506;2022-12-20T17:05:57;9.50;99.90
22319;DHT22;11327;52.334;9.506;2022-12-20T17:09:18;9.30;99.90
22319;DHT22;11327;52.334;9.506;2022-12-20T17:12:39;9.20;99.90
22319;DHT22;11327;52.334;9.506;2022-12-20T17:16:00;9.40;99.90
22319;DHT22;11327;52.334;9.506;2022-12-20T17:19:21;9.50;99.90
22319;DHT22;11327;52.334;9.506;2022-12-20T17:22:43;9.60;99.90
22319;DHT22;11327;52.334;9.506;2022-12-20T17:26:04;9.60;99.90
22319;DHT22;11327;52.334;9.506;2022-12-20T17:29:25;9.60;99.90
22319;DHT22;11327;52.334;9.506;2022-12-20T17:32:46;9.50;99.90
22319;DHT22;11327;52.334;9.506;2022-12-20T17:36:08;9.50;99.90
22319;DHT22;11327;52.334;9.506;2022-12-20T17:39:29;9.50;99.90
22319;DHT22;11327;52.334;9.506;2022-12-20T17:42:50;9.60;99.90
22319;DHT22;11327;52.334;9.506;2022-12-20T17:46:11;9.70;99.90
22319;DHT22;11327;52.334;9.506;2022-12-20T17:49:33;9.70;99.90
22319;DHT22;11327;52.334;9.506;2022-12-20T17:52:54;9.60;99.90
22319;DHT22;11327;52.334;9.506;2022-12-20T17:59:46;9.50;99.90
22319;DHT22;11327;52.334;9.506;2022-12-20T18:03:08;9.70;99.90
22319;DHT22;11327;52.334;9.506;2022-12-20T18:06:30;9.70;99.90
22319;DHT22;11327;52.334;9.506;2022-12-20T18:09:51;9.70;99.90
22319;DHT22;11327;52.334;9.506;2022-12-20T18:13:12;9.60;99.90
22319;DHT22;11327;52.334;9.506;2022-12-20T18:16:34;9.40;99.90
22319;DHT22;11327;52.334;9.506;2022-12-20T18:19:54;9.30;99.90
22319;DHT22;11327;52.334;9.506;2022-12-20T18:23:16;9.10;99.90
22319;DHT22;11327;52.334;9.506;2022-12-20T18:26:37;9.30;99.90
22319;DHT22;11327;52.334;9.506;2022-12-20T18:29:58;9.20;99.90
22319;DHT22;11327;52.334;9.506;2022-12-20T18:33:19;9.30;99.90
22319;DHT22;11327;52.334;9.506;2022-12-20T18:36:40;9.20;99.90
22319;DHT22;11327;52.334;9.506;2022-12-20T18:40:01;9.10;99.90
22319;DHT22;11327;52.334;9.506;2022-12-20T18:43:23;9.10;99.90
22319;DHT22;11327;52.334;9.506;2022-12-20T18:46:44;8.90;99.90
22319;DHT22;11327;52.334;9.506;2022-12-20T18:50:06;8.80;99.90
22319;DHT22;11327;52.334;9.506;2022-12-20T18:53:30;8.70;99.90
22319;DHT22;11327;52.334;9.506;2022-12-20T18:56:51;8.70;99.90
22319;DHT22;11327;52.334;9.506;2022-12-20T19:00:12;8.60;99.90
22319;DHT22;11327;52.334;9.506;2022-12-20T19:03:34;8.50;99.90
22319;DHT22;11327;52.334;9.506;2022-12-20T19:06:55;8.40;99.90
22319;DHT22;11327;52.334;9.506;2022-12-20T19:10:16;8.30;99.90
22319;DHT22;11327;52.334;9.506;2022-12-20T19:13:37;8.40;99.90
22319;DHT22;11327;52.334;9.506;2022-12-20T19:16:58;8.40;99.90
22319;DHT22;11327;52.334;9.506;2022-12-20T19:20:20;8.30;99.90
22319;DHT22;11327;52.334;9.506;2022-12-20T19:23:43;8.30;99.90
22319;DHT22;11327;52.334;9.506;2022-12-20T19:27:04;8.30;99.90
22319;DHT22;11327;52.334;9.506;2022-12-20T19:30:27;8.40;99.90
22319;DHT22;11327;52.334;9.506;2022-12-20T19:33:50;8.50;99.90
22319;DHT22;11327;52.334;9.506;2022-12-20T19:37:12;8.60;99.90
22319;DHT22;11327;52.334;9.506;2022-12-20T19:40:33;8.60;99.90
22319;DHT22;11327;52.334;9.506;2022-12-20T19:43:55;8.50;99.90
22319;DHT22;11327;52.334;9.506;2022-12-20T19:47:16;8.50;99.90
22319;DHT22;11327;52.334;9.506;2022-12-20T19:50:37;8.50;99.90
22319;DHT22;11327;52.334;9.506;2022-12-20T19:53:59;8.50;99.90
22319;DHT22;11327;52.334;9.506;2022-12-20T19:57:20;8.50;99.90
22319;DHT22;11327;52.334;9.506;2022-12-20T20:00:41;8.60;99.90
22319;DHT22;11327;52.334;9.506;2022-12-20T20:04:03;8.50;99.90
22319;DHT22;11327;52.334;9.506;2022-12-20T20:07:25;8.60;99.90
22319;DHT22;11327;52.334;9.506;2022-12-20T20:10:52;8.70;99.90
22319;DHT22;11327;52.334;9.506;2022-12-20T20:14:13;8.70;99.90
22319;DHT22;11327;52.334;9.506;2022-12-20T20:17:34;8.70;99.90
22319;DHT22;11327;52.334;9.506;2022-12-20T20:20:55;8.70;99.90
22319;DHT22;11327;52.334;9.506;2022-12-20T20:24:17;8.80;99.90
22319;DHT22;11327;52.334;9.506;2022-12-20T20:27:38;8.80;99.90
22319;DHT22;11327;52.334;9.506;2022-12-20T20:30:59;8.70;99.90
22319;DHT22;11327;52.334;9.506;2022-12-20T20:34:21;8.70;99.90
22319;DHT22;11327;52.334;9.506;2022-12-20T20:37:42;8.70;99.90
22319;DHT22;11327;52.334;9.506;2022-12-20T20:41:03;8.70;99.90
22319;DHT22;11327;52.334;9.506;2022-12-20T20:44:24;8.60;99.90
22319;DHT22;11327;52.334;9.506;2022-12-20T20:47:45;8.60;99.90
22319;DHT22;11327;52.334;9.506;2022-12-20T20:51:06;8.60;99.90
22319;DHT22;11327;52.334;9.506;2022-12-20T20:54:27;8.60;99.90
22319;DHT22;11327;52.334;9.506;2022-12-20T20:57:48;8.60;99.90
22319;DHT22;11327;52.334;9.506;2022-12-20T21:01:10;8.50;99.90
22319;DHT22;11327;52.334;9.506;2022-12-20T21:04:31;8.40;99.90
22319;DHT22;11327;52.334;9.506;2022-12-20T21:07:52;8.30;99.90
22319;DHT22;11327;52.334;9.506;2022-12-20T21:11:13;8.20;99.90
22319;DHT22;11327;52.334;9.506;2022-12-20T21:14:34;8.20;99.90
22319;DHT22;11327;52.334;9.506;2022-12-20T21:17:55;8.20;99.90
22319;DHT22;11327;52.334;9.506;2022-12-20T21:21:16;8.10;99.90
22319;DHT22;11327;52.334;9.506;2022-12-20T21:24:37;8.10;99.90
22319;DHT22;11327;52.334;9.506;2022-12-20T21:27:58;8.10;99.90
22319;DHT22;11327;52.334;9.506;2022-12-20T21:31:19;8.10;99.90
22319;DHT22;11327;52.334;9.506;2022-12-20T21:34:40;8.00;99.90
22319;DHT22;11327;52.334;9.506;2022-12-20T21:38:01;8.20;99.90
22319;DHT22;11327;52.334;9.506;2022-12-20T21:41:25;8.20;99.90
22319;DHT22;11327;52.334;9.506;2022-12-20T21:44:46;8.20;99.90
22319;DHT22;11327;52.334;9.506;2022-12-20T21:48:07;8.30;99.90
22319;DHT22;11327;52.334;9.506;2022-12-20T21:51:29;8.20;99.90
22319;DHT22;11327;52.334;9.506;2022-12-20T21:54:50;8.10;99.90
22319;DHT22;11327;52.334;9.506;2022-12-20T21:58:11;8.10;99.90
22319;DHT22;11327;52.334;9.506;2022-12-20T22:01:52;8.20;99.90
22319;DHT22;11327;52.334;9.506;2022-12-20T22:05:13;8.00;99.90
22319;DHT22;11327;52.334;9.506;2022-12-20T22:08:35;8.20;99.90
22319;DHT22;11327;52.334;9.506;2022-12-20T22:11:56;8.20;99.90
22319;DHT22;11327;52.334;9.506;2022-12-20T22:15:17;8.30;99.90
22319;DHT22;11327;52.334;9.506;2022-12-20T22:18:38;8.20;99.90
22319;DHT22;11327;52.334;9.506;2022-12-20T22:22:00;8.20;99.90
22319;DHT22;11327;52.334;9.506;2022-12-20T22:25:21;8.30;99.90
22319;DHT22;11327;52.334;9.506;2022-12-20T22:28:54;8.20;99.90
22319;DHT22;11327;52.334;9.506;2022-12-20T22:32:15;8.20;99.90
22319;DHT22;11327;52.334;9.506;2022-12-20T22:35:36;8.30;99.90
22319;DHT22;11327;52.334;9.506;2022-12-20T22:38:57;8.40;99.90
22319;DHT22;11327;52.334;9.506;2022-12-20T22:42:19;8.60;99.90
22319;DHT22;11327;52.334;9.506;2022-12-20T22:45:40;8.80;99.90
22319;DHT22;11327;52.334;9.506;2022-12-20T22:49:01;9.00;99.90
22319;DHT22;11327;52.334;9.506;2022-12-20T22:52:22;9.10;99.90
22319;DHT22;11327;52.334;9.506;2022-12-20T22:55:43;9.00;99.90
22319;DHT22;11327;52.334;9.506;2022-12-20T22:59:04;9.00;99.90
22319;DHT22;11327;52.334;9.506;2022-12-20T23:02:26;9.00;99.90
22319;DHT22;11327;52.334;9.506;2022-12-20T23:05:55;9.00;99.90
22319;DHT22;11327;52.334;9.506;2022-12-20T23:09:16;9.00;99.90
22319;DHT22;11327;52.334;9.506;2022-12-20T23:12:37;8.80;99.90
22319;DHT22;11327;52.334;9.506;2022-12-20T23:16:17;8.70;99.90
22319;DHT22;11327;52.334;9.506;2022-12-20T23:19:38;8.50;99.90
22319;DHT22;11327;52.334;9.506;2022-12-20T23:23:17;8.50;99.90
22319;DHT22;11327;52.334;9.506;2022-12-20T23:26:39;8.40;99.90
22319;DHT22;11327;52.334;9.506;2022-12-20T23:30:01;8.30;99.90